createdAt,value
2019-01-14T00:00:30.440Z,93970.4
2019-01-14T00:01:32.870Z,93962.3
2019-01-14T00:02:35.026Z,93962.3
2019-01-14T00:03:36.895Z,93962
2019-01-14T00:04:39.320Z,93963.8
2019-01-14T00:05:41.739Z,93958.8
2019-01-14T00:06:44.197Z,93960.7
2019-01-14T00:07:46.625Z,93952.8
2019-01-14T00:08:49.050Z,93957
2019-01-14T00:09:51.484Z,93960.7
2019-01-14T00:10:53.694Z,93957
2019-01-14T00:11:55.875Z,93959.7
2019-01-14T00:12:58.304Z,93940.9
2019-01-14T00:14:00.741Z,93942.6
2019-01-14T00:15:03.175Z,93936.2
2019-01-14T00:16:05.599Z,93945.1
2019-01-14T00:17:08.024Z,93937.8
2019-01-14T00:18:10.192Z,93941.6
2019-01-14T00:19:12.346Z,93935.8
2019-01-14T00:20:14.769Z,93932.8
2019-01-14T00:21:16.922Z,93938.9
2019-01-14T00:22:19.364Z,93940.8
2019-01-14T00:23:21.529Z,93940.6
2019-01-14T00:24:23.962Z,93950.3
2019-01-14T00:25:26.123Z,93944.5
2019-01-14T00:26:28.544Z,93938.3
2019-01-14T00:27:30.688Z,93931.9
2019-01-14T00:28:33.106Z,93948
2019-01-14T00:29:35.245Z,93951.5
2019-01-14T00:30:37.406Z,93952.3
2019-01-14T00:31:39.821Z,93951.9
2019-01-14T00:32:42.249Z,93948.1
2019-01-14T00:33:44.431Z,93946.5
2019-01-14T00:34:46.854Z,93952.3
2019-01-14T00:35:48.987Z,93946.6
2019-01-14T00:36:51.135Z,93953.2
2019-01-14T00:37:53.564Z,93956.8
2019-01-14T00:38:55.989Z,93955.5
2019-01-14T00:39:58.435Z,93950.7
2019-01-14T00:41:00.607Z,93954.8
2019-01-14T00:42:03.112Z,93966
2019-01-14T00:43:05.537Z,93971.3
2019-01-14T00:44:07.690Z,93978.8
2019-01-14T00:45:09.842Z,93977.8
2019-01-14T00:46:12.272Z,93988.1
2019-01-14T00:47:14.694Z,93986.1
2019-01-14T00:48:16.846Z,93988.9
2019-01-14T00:49:19.275Z,93993.1
2019-01-14T00:50:21.435Z,93988.6
2019-01-14T00:51:23.865Z,93997.7
2019-01-14T00:52:26.013Z,93997.3
2019-01-14T00:53:27.902Z,93995.3
2019-01-14T00:54:30.050Z,94009.4
2019-01-14T00:55:31.675Z,94002.9
2019-01-14T00:56:34.110Z,94013.9
2019-01-14T00:57:36.541Z,94016
2019-01-14T00:58:38.422Z,94012
2019-01-14T00:59:40.564Z,94024.5
2019-01-14T01:00:42.995Z,94022.1
2019-01-14T01:01:45.420Z,94025.8
2019-01-14T01:02:47.872Z,94022.1
2019-01-14T01:03:50.304Z,94024.4
2019-01-14T01:04:52.724Z,94027.7
2019-01-14T01:05:55.151Z,94028.4
2019-01-14T01:06:57.296Z,94034.4
2019-01-14T01:07:59.456Z,94035
2019-01-14T01:09:01.609Z,94035.5
2019-01-14T01:10:04.047Z,94041
2019-01-14T01:11:05.910Z,94037.8
2019-01-14T01:12:08.358Z,94041.1
2019-01-14T01:13:10.524Z,94036.1
2019-01-14T01:14:12.942Z,94039.5
2019-01-14T01:15:15.380Z,94038.7
2019-01-14T01:16:17.801Z,94039
2019-01-14T01:17:19.982Z,94053.7
2019-01-14T01:18:22.384Z,94042.4
2019-01-14T01:19:24.514Z,94040.8
2019-01-14T01:20:26.682Z,94037.1
2019-01-14T01:21:29.104Z,94042.7
2019-01-14T01:22:31.234Z,94042.2
2019-01-14T01:23:33.388Z,94049.8
2019-01-14T01:24:35.805Z,94049.6
2019-01-14T01:25:38.232Z,94051.5
2019-01-14T01:26:40.659Z,94059.2
2019-01-14T01:27:43.077Z,94060.1
2019-01-14T01:28:45.502Z,94066.6
2019-01-14T01:29:47.661Z,94067.3
2019-01-14T01:30:50.095Z,94074.3
2019-01-14T01:31:52.232Z,94083.8
2019-01-14T01:32:54.130Z,94084.3
2019-01-14T01:33:56.257Z,94084.1
2019-01-14T01:34:58.414Z,94073.4
2019-01-14T01:36:00.842Z,94061.8
2019-01-14T01:37:03.274Z,94079
2019-01-14T01:38:05.450Z,94100.7
2019-01-14T01:39:07.882Z,94104.1
2019-01-14T01:40:10.365Z,94112.3
2019-01-14T01:41:12.774Z,94103
2019-01-14T01:42:14.934Z,94091
2019-01-14T01:43:17.092Z,94079.3
2019-01-14T01:44:19.245Z,94092.7
2019-01-14T01:45:21.406Z,94085.1
2019-01-14T01:46:23.574Z,94100.5
2019-01-14T01:47:25.730Z,94082.9
2019-01-14T01:48:28.149Z,94086.8
2019-01-14T01:49:30.579Z,94093.1
2019-01-14T01:50:33.007Z,94092.8
2019-01-14T01:51:35.164Z,94094.8
2019-01-14T01:52:37.594Z,94101.2
2019-01-14T01:53:39.752Z,94094.5
2019-01-14T01:54:42.201Z,94103.1
2019-01-14T01:55:44.636Z,94112.3
2019-01-14T01:56:47.054Z,94108.3
2019-01-14T01:57:49.215Z,94104.3
2019-01-14T01:58:51.074Z,94106.8
2019-01-14T01:59:53.522Z,94114.4
2019-01-14T02:00:55.942Z,94111.3
2019-01-14T02:01:58.362Z,94108.8
2019-01-14T02:03:00.784Z,94113.4
2019-01-14T02:04:02.642Z,94109.5
2019-01-14T02:05:04.786Z,94112.9
2019-01-14T02:06:07.211Z,94113.7
2019-01-14T02:07:09.653Z,94111.6
2019-01-14T02:08:11.794Z,94105.7
2019-01-14T02:09:14.224Z,94118.5
2019-01-14T02:10:16.366Z,94124.8
2019-01-14T02:11:18.234Z,94125.7
2019-01-14T02:12:20.390Z,94133.6
2019-01-14T02:13:22.550Z,94131
2019-01-14T02:14:24.695Z,94134.3
2019-01-14T02:15:27.124Z,94139.5
2019-01-14T02:16:29.279Z,94134.1
2019-01-14T02:17:31.713Z,94133.2
2019-01-14T02:18:33.885Z,94136.4
2019-01-14T02:19:35.764Z,94140.7
2019-01-14T02:20:37.892Z,94141.1
2019-01-14T02:21:40.051Z,94136.1
2019-01-14T02:22:42.193Z,94144.2
2019-01-14T02:23:44.082Z,94140.3
2019-01-14T02:24:46.214Z,94141.9
2019-01-14T02:25:48.650Z,94142.1
2019-01-14T02:26:50.783Z,94150.6
2019-01-14T02:27:53.214Z,94148.6
2019-01-14T02:28:55.650Z,94150
2019-01-14T02:29:57.803Z,94150.4
2019-01-14T02:31:00.234Z,94155.6
2019-01-14T02:32:02.674Z,94155.5
2019-01-14T02:33:05.105Z,94151.2
2019-01-14T02:34:07.258Z,94144.1
2019-01-14T02:35:09.687Z,94146.5
2019-01-14T02:36:11.844Z,94156.5
2019-01-14T02:37:13.995Z,94149.8
2019-01-14T02:38:16.424Z,94154.1
2019-01-14T02:39:18.326Z,94151.1
2019-01-14T02:40:20.810Z,94151.4
2019-01-14T02:41:23.231Z,94153.3
2019-01-14T02:42:25.659Z,94155
2019-01-14T02:43:28.085Z,94152.4
2019-01-14T02:44:30.509Z,94160.6
2019-01-14T02:45:32.953Z,94156
2019-01-14T02:46:35.392Z,94156.4
2019-01-14T02:47:37.561Z,94158.8
2019-01-14T02:48:39.987Z,94164.4
2019-01-14T02:49:42.415Z,94163.7
2019-01-14T02:50:44.834Z,94165.2
2019-01-14T02:51:47.306Z,94166.8
2019-01-14T02:52:49.729Z,94172.8
2019-01-14T02:53:52.158Z,94176
2019-01-14T02:54:54.306Z,94170
2019-01-14T02:55:56.468Z,94166.3
2019-01-14T02:56:58.614Z,94164.6
2019-01-14T02:58:01.035Z,94172
2019-01-14T02:59:03.191Z,94174.1
2019-01-14T03:00:05.645Z,94173.4
2019-01-14T03:01:07.794Z,94176
2019-01-14T03:02:10.220Z,94173.9
2019-01-14T03:03:12.366Z,94177
2019-01-14T03:04:14.494Z,94179
2019-01-14T03:05:16.638Z,94178.3
2019-01-14T03:06:19.062Z,94183.1
2019-01-14T03:07:20.926Z,94186.4
2019-01-14T03:08:23.352Z,94192.9
2019-01-14T03:09:25.799Z,94194.6
2019-01-14T03:10:27.952Z,94195.5
2019-01-14T03:11:30.116Z,94195.5
2019-01-14T03:12:32.552Z,94194.2
2019-01-14T03:13:34.692Z,94196.7
2019-01-14T03:14:37.138Z,94197.9
2019-01-14T03:15:39.561Z,94201.5
2019-01-14T03:16:41.984Z,94200.6
2019-01-14T03:17:44.414Z,94199.2
2019-01-14T03:18:46.844Z,94202.4
2019-01-14T03:19:49.259Z,94197.8
2019-01-14T03:20:51.702Z,94202.2
2019-01-14T03:21:54.207Z,94203
2019-01-14T03:22:56.620Z,94209.6
2019-01-14T03:23:59.053Z,94210.5
2019-01-14T03:25:01.653Z,94215.5
2019-01-14T03:26:04.087Z,94219
2019-01-14T03:27:06.510Z,94217.2
2019-01-14T03:28:08.641Z,94221.6
2019-01-14T03:29:10.777Z,94218.8
2019-01-14T03:30:12.935Z,94222.8
2019-01-14T03:31:14.883Z,94225.3
2019-01-14T03:32:17.055Z,94222.4
2019-01-14T03:33:19.202Z,94227.3
2019-01-14T03:34:21.350Z,94224.2
2019-01-14T03:35:23.512Z,94227.6
2019-01-14T03:36:25.949Z,94227.5
2019-01-14T03:37:27.806Z,94223.6
2019-01-14T03:38:30.233Z,94225.3
2019-01-14T03:39:32.663Z,94231
2019-01-14T03:40:35.090Z,94227.5
2019-01-14T03:41:37.282Z,94233.1
2019-01-14T03:42:39.704Z,94230.1
2019-01-14T03:43:42.124Z,94229.9
2019-01-14T03:44:44.563Z,94230.4
2019-01-14T03:45:46.704Z,94230
2019-01-14T03:46:48.864Z,94224
2019-01-14T03:47:51.304Z,94229.9
2019-01-14T03:48:53.434Z,94229
2019-01-14T03:49:55.594Z,94231.6
2019-01-14T03:50:57.194Z,94231.5
2019-01-14T03:51:59.614Z,94227.8
2019-01-14T03:53:02.042Z,94230.8
2019-01-14T03:54:04.197Z,94232.5
2019-01-14T03:55:06.623Z,94234.2
2019-01-14T03:56:08.782Z,94233.9
2019-01-14T03:57:11.237Z,94234.7
2019-01-14T03:58:13.671Z,94235.4
2019-01-14T03:59:16.099Z,94240.8
2019-01-14T04:00:18.254Z,94246.9
2019-01-14T04:01:20.420Z,94242.2
2019-01-14T04:02:22.849Z,94245.3
2019-01-14T04:03:25.061Z,94247
2019-01-14T04:04:26.941Z,94250.8
2019-01-14T04:05:29.371Z,94247.8
2019-01-14T04:06:31.802Z,94253.8
2019-01-14T04:07:34.234Z,94248.3
2019-01-14T04:08:36.394Z,94252.1
2019-01-14T04:09:38.843Z,94250
2019-01-14T04:10:41.268Z,94251.6
2019-01-14T04:11:43.696Z,94244.8
2019-01-14T04:12:45.852Z,94243.5
2019-01-14T04:13:48.285Z,94249.1
2019-01-14T04:14:50.717Z,94241.8
2019-01-14T04:15:53.140Z,94251.7
2019-01-14T04:16:55.277Z,94250.3
2019-01-14T04:17:57.430Z,94253.1
2019-01-14T04:18:59.845Z,94255.9
2019-01-14T04:20:02.015Z,94252.8
2019-01-14T04:21:04.450Z,94254.3
2019-01-14T04:22:06.613Z,94253.3
2019-01-14T04:23:09.042Z,94260.3
2019-01-14T04:24:11.463Z,94251.9
2019-01-14T04:25:13.620Z,94251.8
2019-01-14T04:26:16.043Z,94255.9
2019-01-14T04:27:18.198Z,94257.8
2019-01-14T04:28:20.359Z,94255.4
2019-01-14T04:29:22.784Z,94260.5
2019-01-14T04:30:24.980Z,94261.3
2019-01-14T04:31:27.423Z,94274.8
2019-01-14T04:32:29.298Z,94269.1
2019-01-14T04:33:31.723Z,94273.4
2019-01-14T04:34:34.154Z,94273
2019-01-14T04:35:36.356Z,94274.8
2019-01-14T04:36:38.489Z,94281.3
2019-01-14T04:37:40.909Z,94279.2
2019-01-14T04:38:43.337Z,94279.6
2019-01-14T04:39:45.760Z,94296
2019-01-14T04:40:48.177Z,94288.6
2019-01-14T04:41:50.325Z,94293.6
2019-01-14T04:42:52.754Z,94292.8
2019-01-14T04:43:54.902Z,94298.9
2019-01-14T04:44:57.317Z,94298
2019-01-14T04:45:59.447Z,94299.1
2019-01-14T04:47:01.597Z,94300.8
2019-01-14T04:48:04.032Z,94299.5
2019-01-14T04:49:06.191Z,94300.8
2019-01-14T04:50:08.321Z,94304.3
2019-01-14T04:51:10.744Z,94301.5
2019-01-14T04:52:13.176Z,94302
2019-01-14T04:53:15.325Z,94307.7
2019-01-14T04:54:17.755Z,94304.6
2019-01-14T04:55:19.920Z,94308
2019-01-14T04:56:22.075Z,94313.8
2019-01-14T04:57:24.222Z,94316.8
2019-01-14T04:58:26.652Z,94313.4
2019-01-14T04:59:28.817Z,94310.5
2019-01-14T05:00:30.951Z,94318.8
2019-01-14T05:01:33.106Z,94318.8
2019-01-14T05:02:35.528Z,94320.4
2019-01-14T05:03:37.660Z,94322.3
2019-01-14T05:04:40.085Z,94312.3
2019-01-14T05:05:42.513Z,94330.3
2019-01-14T05:06:44.688Z,94321.1
2019-01-14T05:07:47.110Z,94326.9
2019-01-14T05:08:49.545Z,94328
2019-01-14T05:09:51.965Z,94328.7
2019-01-14T05:10:54.110Z,94332.3
2019-01-14T05:11:56.539Z,94340.3
2019-01-14T05:12:58.683Z,94342.1
2019-01-14T05:14:00.542Z,94343.9
2019-01-14T05:15:02.970Z,94348.6
2019-01-14T05:16:05.107Z,94347.6
2019-01-14T05:17:07.549Z,94353.8
2019-01-14T05:18:09.686Z,94355.4
2019-01-14T05:19:12.119Z,94353.8
2019-01-14T05:20:14.562Z,94358.3
2019-01-14T05:21:16.735Z,94362.6
2019-01-14T05:22:18.610Z,94360.5
2019-01-14T05:23:20.769Z,94367.4
2019-01-14T05:24:23.195Z,94363.4
2019-01-14T05:25:25.621Z,94358.5
2019-01-14T05:26:27.475Z,94363.2
2019-01-14T05:27:29.899Z,94367
2019-01-14T05:28:32.035Z,94361.4
2019-01-14T05:29:33.920Z,94357.7
2019-01-14T05:30:36.363Z,94362.4
2019-01-14T05:31:38.788Z,94368.4
2019-01-14T05:32:40.933Z,94364.4
2019-01-14T05:33:43.085Z,94365.6
2019-01-14T05:34:45.515Z,94366.5
2019-01-14T05:35:47.954Z,94367.4
2019-01-14T05:36:50.381Z,94368.7
2019-01-14T05:37:52.801Z,94373
2019-01-14T05:38:54.961Z,94371.4
2019-01-14T05:39:57.095Z,94368.7
2019-01-14T05:40:59.255Z,94370.6
2019-01-14T05:42:01.683Z,94373.8
2019-01-14T05:43:03.833Z,94370.7
2019-01-14T05:44:06.264Z,94370.4
2019-01-14T05:45:08.395Z,94373.2
2019-01-14T05:46:10.543Z,94374
2019-01-14T05:47:12.705Z,94374
2019-01-14T05:48:14.867Z,94380.5
2019-01-14T05:49:17.015Z,94375.5
2019-01-14T05:50:19.157Z,94376.7
2019-01-14T05:51:21.575Z,94375.9
2019-01-14T05:52:24.081Z,94375.4
2019-01-14T05:53:26.235Z,94370.4
2019-01-14T05:54:28.669Z,94374.9
2019-01-14T05:55:30.857Z,94376.7
2019-01-14T05:56:33.314Z,94372
2019-01-14T05:57:35.737Z,94383.1
2019-01-14T05:58:38.159Z,94386.1
2019-01-14T05:59:39.756Z,94387.6
2019-01-14T06:00:41.894Z,94392.9
2019-01-14T06:01:44.060Z,94392.3
2019-01-14T06:02:46.225Z,94390.6
2019-01-14T06:03:48.665Z,94389.6
2019-01-14T06:04:51.095Z,94385.2
2019-01-14T06:05:53.259Z,94387.2
2019-01-14T06:06:55.693Z,94384.7
2019-01-14T06:07:57.852Z,94389.8
2019-01-14T06:09:00.328Z,94391
2019-01-14T06:10:02.532Z,94387.7
2019-01-14T06:11:04.690Z,94392.5
2019-01-14T06:12:07.123Z,94393.7
2019-01-14T06:13:09.564Z,94398.9
2019-01-14T06:14:11.736Z,94403.5
2019-01-14T06:15:13.893Z,94400.8
2019-01-14T06:16:16.341Z,94404.1
2019-01-14T06:17:20.127Z,94401.5
2019-01-14T06:18:22.261Z,94405.1
2019-01-14T06:19:24.154Z,94409.4
2019-01-14T06:20:26.365Z,94411.4
2019-01-14T06:21:28.807Z,94416.3
2019-01-14T06:22:31.255Z,94416
2019-01-14T06:23:33.684Z,94415.6
2019-01-14T06:24:36.113Z,94416.6
2019-01-14T06:25:38.544Z,94414.1
2019-01-14T06:26:40.991Z,94415.4
2019-01-14T06:27:43.449Z,94414.6
2019-01-14T06:28:45.346Z,94416.2
2019-01-14T06:29:47.779Z,94416
2019-01-14T06:30:50.251Z,94418.6
2019-01-14T06:31:52.699Z,94419.2
2019-01-14T06:32:54.869Z,94416
2019-01-14T06:33:57.283Z,94415
2019-01-14T06:34:59.723Z,94421.6
2019-01-14T06:36:02.161Z,94420
2019-01-14T06:37:04.359Z,94422.5
2019-01-14T06:38:06.795Z,94423.8
2019-01-14T06:39:08.952Z,94426.8
2019-01-14T06:40:11.387Z,94428.4
2019-01-14T06:41:13.855Z,94428.6
2019-01-14T06:42:16.286Z,94423.2
2019-01-14T06:43:18.445Z,94428.2
2019-01-14T06:44:20.868Z,94434
2019-01-14T06:45:23.021Z,94435
2019-01-14T06:46:25.493Z,94437.1
2019-01-14T06:47:27.927Z,94434.9
2019-01-14T06:48:31.553Z,94437.7
2019-01-14T06:49:33.983Z,94442.6
2019-01-14T06:50:36.127Z,94450.2
2019-01-14T06:51:38.573Z,94446.3
2019-01-14T06:52:40.734Z,94450.7
2019-01-14T06:53:42.873Z,94456.3
2019-01-14T06:54:45.115Z,94461.2
2019-01-14T06:55:47.578Z,94461.6
2019-01-14T06:56:50.035Z,94463.9
2019-01-14T06:57:52.241Z,94469.8
2019-01-14T06:58:54.674Z,94461
2019-01-14T06:59:57.112Z,94466
2019-01-14T07:00:59.534Z,94467.4
2019-01-14T07:02:01.688Z,94467.8
2019-01-14T07:03:04.124Z,94471.5
2019-01-14T07:04:06.556Z,94469.6
2019-01-14T07:05:08.435Z,94472.4
2019-01-14T07:06:10.328Z,94471.5
2019-01-14T07:07:12.756Z,94473.6
2019-01-14T07:08:15.188Z,94482.1
2019-01-14T07:09:17.316Z,94493.3
2019-01-14T07:10:19.741Z,94486.8
2019-01-14T07:11:22.190Z,94484.8
2019-01-14T07:12:24.064Z,94486.1
2019-01-14T07:13:26.216Z,94489.6
2019-01-14T07:14:28.672Z,94489.1
2019-01-14T07:15:30.817Z,94487.8
2019-01-14T07:16:32.991Z,94491
2019-01-14T07:17:35.434Z,94497.6
2019-01-14T07:18:37.579Z,94500
2019-01-14T07:19:39.722Z,94501.1
2019-01-14T07:20:42.162Z,94507
2019-01-14T07:21:44.609Z,94505.6
2019-01-14T07:22:47.032Z,94503.4
2019-01-14T07:23:49.476Z,94505
2019-01-14T07:24:51.638Z,94500
2019-01-14T07:25:54.063Z,94506.7
2019-01-14T07:26:56.483Z,94505
2019-01-14T07:27:58.922Z,94506.8
2019-01-14T07:29:01.091Z,94510.5
2019-01-14T07:30:03.234Z,94508.7
2019-01-14T07:31:05.387Z,94509.6
2019-01-14T07:32:07.556Z,94508.8
2019-01-14T07:33:09.725Z,94513.7
2019-01-14T07:34:12.155Z,94518.3
2019-01-14T07:35:14.608Z,94520.8
2019-01-14T07:36:16.755Z,94518.2
2019-01-14T07:37:18.635Z,94522.8
2019-01-14T07:38:21.079Z,94518.8
2019-01-14T07:39:23.512Z,94521.6
2019-01-14T07:40:25.864Z,94520
2019-01-14T07:41:28.011Z,94526.2
2019-01-14T07:42:30.152Z,94522.2
2019-01-14T07:43:32.307Z,94525.7
2019-01-14T07:44:34.800Z,94526.2
2019-01-14T07:45:36.664Z,94530.6
2019-01-14T07:46:39.096Z,94525.8
2019-01-14T07:47:41.524Z,94532.8
2019-01-14T07:48:43.433Z,94533
2019-01-14T07:49:45.872Z,94528.5
2019-01-14T07:50:48.301Z,94537
2019-01-14T07:51:50.462Z,94538.8
2019-01-14T07:52:52.611Z,94537.7
2019-01-14T07:53:55.051Z,94541.5
2019-01-14T07:54:57.197Z,94544
2019-01-14T07:55:59.638Z,94544.9
2019-01-14T07:57:02.065Z,94546.2
2019-01-14T07:58:04.221Z,94545.8
2019-01-14T07:59:06.648Z,94541.5
2019-01-14T08:00:09.083Z,94542.5
2019-01-14T08:01:11.237Z,94547.5
2019-01-14T08:02:13.667Z,94549.8
2019-01-14T08:03:15.815Z,94545.8
2019-01-14T08:04:17.706Z,94553.6
2019-01-14T08:05:19.875Z,94552.4
2019-01-14T08:06:22.015Z,94555.6
2019-01-14T08:07:24.159Z,94557.8
2019-01-14T08:08:26.324Z,94555.1
2019-01-14T08:09:28.755Z,94558.8
2019-01-14T08:10:30.630Z,94564
2019-01-14T08:11:33.048Z,94568.6
2019-01-14T08:12:35.211Z,94571
2019-01-14T08:13:36.801Z,94571.2
2019-01-14T08:14:39.254Z,94571.3
2019-01-14T08:15:46.173Z,94577.7
2019-01-14T08:16:48.613Z,94566.1
2019-01-14T08:17:51.044Z,94571.5
2019-01-14T08:18:52.954Z,94576.2
2019-01-14T08:19:54.829Z,94578.1
2019-01-14T08:20:56.997Z,94576.9
2019-01-14T08:21:59.430Z,94571.1
2019-01-14T08:23:01.604Z,94571.8
2019-01-14T08:24:04.031Z,94576.3
2019-01-14T08:25:06.461Z,94573
2019-01-14T08:26:08.623Z,94579.2
2019-01-14T08:27:11.064Z,94574.9
2019-01-14T08:28:13.497Z,94575.6
2019-01-14T08:29:15.912Z,94584.7
2019-01-14T08:30:18.086Z,94588.1
2019-01-14T08:31:19.945Z,94583.5
2019-01-14T08:32:22.108Z,94586.9
2019-01-14T08:33:24.264Z,94578.2
2019-01-14T08:34:26.423Z,94587.2
2019-01-14T08:35:28.570Z,94583.2
2019-01-14T08:36:30.475Z,94593.3
2019-01-14T08:37:32.627Z,94587.8
2019-01-14T08:38:34.786Z,94586.8
2019-01-14T08:39:36.944Z,94587.6
2019-01-14T08:40:38.814Z,94594
2019-01-14T08:41:41.236Z,94587.6
2019-01-14T08:42:43.656Z,94599.3
2019-01-14T08:43:45.798Z,94603.4
2019-01-14T08:44:47.955Z,94599.4
2019-01-14T08:45:50.378Z,94599.7
2019-01-14T08:46:52.812Z,94601
2019-01-14T08:47:54.694Z,94603
2019-01-14T08:48:56.829Z,94602.5
2019-01-14T08:49:58.987Z,94602.1
2019-01-14T08:51:01.114Z,94604.9
2019-01-14T08:52:03.587Z,94601.5
2019-01-14T08:53:06.012Z,94608.7
2019-01-14T08:54:08.424Z,94609.9
2019-01-14T08:55:10.868Z,94615.2
2019-01-14T08:56:13.304Z,94617.7
2019-01-14T08:57:15.745Z,94627.8
2019-01-14T08:58:18.178Z,94626.3
2019-01-14T08:59:20.604Z,94630.2
2019-01-14T09:00:23.034Z,94629.7
2019-01-14T09:01:25.192Z,94636
2019-01-14T09:02:27.354Z,94638.7
2019-01-14T09:03:29.786Z,94637.5
2019-01-14T09:04:33.528Z,94643
2019-01-14T09:05:35.659Z,94645.5
2019-01-14T09:06:38.111Z,94645.7
2019-01-14T09:07:40.255Z,94651.1
2019-01-14T09:08:42.672Z,94643.7
2019-01-14T09:09:44.815Z,94654.4
2019-01-14T09:10:47.243Z,94647.1
2019-01-14T09:11:49.414Z,94647.1
2019-01-14T09:12:51.285Z,94644.2
2019-01-14T09:13:53.438Z,94647.1
2019-01-14T09:14:55.870Z,94643.4
2019-01-14T09:15:58.046Z,94649.5
2019-01-14T09:17:00.474Z,94643.9
2019-01-14T09:18:04.477Z,94645.5
2019-01-14T09:19:06.943Z,94646.4
2019-01-14T09:20:09.090Z,94645.8
2019-01-14T09:21:11.234Z,94647.4
2019-01-14T09:22:14.979Z,94646.8
2019-01-14T09:23:17.133Z,94642.6
2019-01-14T09:24:19.304Z,94646.1
2019-01-14T09:25:21.727Z,94647.4
2019-01-14T09:26:23.862Z,94652.7
2019-01-14T09:27:26.300Z,94651.8
2019-01-14T09:28:28.174Z,94655.4
2019-01-14T09:29:30.346Z,94656.9
2019-01-14T09:30:32.799Z,94657.9
2019-01-14T09:31:35.227Z,94659.9
2019-01-14T09:32:37.104Z,94657.1
2019-01-14T09:33:38.990Z,94663.1
2019-01-14T09:34:41.190Z,94661.4
2019-01-14T09:35:43.074Z,94661.7
2019-01-14T09:36:45.223Z,94664.1
2019-01-14T09:37:47.642Z,94663
2019-01-14T09:38:50.064Z,94662.6
2019-01-14T09:39:52.232Z,94661.6
2019-01-14T09:40:54.664Z,94663.2
2019-01-14T09:41:56.816Z,94663.1
2019-01-14T09:42:58.975Z,94663.2
2019-01-14T09:44:01.118Z,94662.3
2019-01-14T09:45:03.000Z,94665.6
2019-01-14T09:46:05.134Z,94667.8
2019-01-14T09:47:07.570Z,94665.2
2019-01-14T09:48:09.994Z,94661
2019-01-14T09:49:12.422Z,94669.9
2019-01-14T09:50:14.855Z,94672.8
2019-01-14T09:51:17.291Z,94671.8
2019-01-14T09:52:19.466Z,94669.8
2019-01-14T09:53:21.601Z,94673.7
2019-01-14T09:54:23.777Z,94674
2019-01-14T09:55:26.191Z,94675.9
2019-01-14T09:56:28.624Z,94673.2
2019-01-14T09:57:31.058Z,94675
2019-01-14T09:58:32.956Z,94676.6
2019-01-14T09:59:35.109Z,94673.6
2019-01-14T10:00:37.253Z,94665.1
2019-01-14T10:01:39.694Z,94667.1
2019-01-14T10:02:41.555Z,94668.8
2019-01-14T10:03:44.004Z,94665.6
2019-01-14T10:04:46.168Z,94665.8
2019-01-14T10:05:48.625Z,94666
2019-01-14T10:06:50.502Z,94662.4
2019-01-14T10:07:52.931Z,94660.9
2019-01-14T10:08:55.077Z,94656.7
2019-01-14T10:09:57.504Z,94664.3
2019-01-14T10:10:59.978Z,94657
2019-01-14T10:12:02.438Z,94657.6
2019-01-14T10:13:04.873Z,94661.3
2019-01-14T10:14:07.295Z,94659.3
2019-01-14T10:15:09.271Z,94665.3
2019-01-14T10:16:11.212Z,94662.7
2019-01-14T10:17:13.375Z,94663.6
2019-01-14T10:18:15.547Z,94663.6
2019-01-14T10:19:17.696Z,94662.8
2019-01-14T10:20:19.914Z,94660.5
2019-01-14T10:21:22.343Z,94663.1
2019-01-14T10:22:24.772Z,94657.1
2019-01-14T10:23:27.195Z,94657
2019-01-14T10:24:29.354Z,94655.7
2019-01-14T10:25:31.785Z,94655
2019-01-14T10:26:34.205Z,94654.2
2019-01-14T10:27:36.075Z,94656.8
2019-01-14T10:28:38.528Z,94656.6
2019-01-14T10:29:40.701Z,94651.2
2019-01-14T10:30:42.822Z,94652.4
2019-01-14T10:31:44.970Z,94650.7
2019-01-14T10:32:47.398Z,94647.1
2019-01-14T10:33:49.832Z,94649.7
2019-01-14T10:34:52.272Z,94652.1
2019-01-14T10:35:54.424Z,94641.2
2019-01-14T10:36:56.847Z,94644.9
2019-01-14T10:37:59.010Z,94649.9
2019-01-14T10:39:01.446Z,94648.2
2019-01-14T10:40:03.605Z,94646.3
2019-01-14T10:41:05.764Z,94643.2
2019-01-14T10:42:07.654Z,94646.7
2019-01-14T10:43:10.094Z,94643
2019-01-14T10:44:12.527Z,94645.5
2019-01-14T10:45:14.676Z,94647.9
2019-01-14T10:46:17.114Z,94639.9
2019-01-14T10:47:19.276Z,94647
2019-01-14T10:48:21.140Z,94642.2
2019-01-14T10:49:23.309Z,94640.3
2019-01-14T10:50:25.741Z,94642.4
2019-01-14T10:51:27.891Z,94639.5
2019-01-14T10:52:30.067Z,94648.3
2019-01-14T10:53:32.485Z,94643.1
2019-01-14T10:54:34.642Z,94645.8
2019-01-14T10:55:37.061Z,94642
2019-01-14T10:57:45.425Z,94645.3
2019-01-14T10:58:47.854Z,94646.5
2019-01-14T10:59:50.279Z,94643.4
2019-01-14T11:00:52.723Z,94639.9
2019-01-14T11:01:54.047Z,94642.6
2019-01-14T11:02:56.215Z,94639.6
2019-01-14T11:03:58.362Z,94640.9
2019-01-14T11:05:00.508Z,94635.8
2019-01-14T11:06:02.661Z,94637.2
2019-01-14T11:07:04.835Z,94638
2019-01-14T11:08:06.971Z,94632.9
2019-01-14T11:09:08.868Z,94634.4
2019-01-14T11:10:11.305Z,94635.8
2019-01-14T11:11:13.469Z,94642.3
2019-01-14T11:12:15.901Z,94642.8
2019-01-14T11:13:18.335Z,94633.4
2019-01-14T11:14:20.785Z,94633.4
2019-01-14T11:15:22.939Z,94633.8
2019-01-14T11:16:25.384Z,94632.8
2019-01-14T11:17:27.821Z,94634.2
2019-01-14T11:18:30.247Z,94639.4
2019-01-14T11:19:32.677Z,94631
2019-01-14T11:20:34.843Z,94629
2019-01-14T11:21:37.273Z,94631
2019-01-14T11:22:39.447Z,94639.6
2019-01-14T11:23:41.873Z,94635.5
2019-01-14T11:24:44.309Z,94631.1
2019-01-14T11:25:46.732Z,94632.4
2019-01-14T11:26:48.889Z,94629.7
2019-01-14T11:27:51.315Z,94634.6
2019-01-14T11:28:53.745Z,94625.9
2019-01-14T11:29:56.173Z,94629.3
2019-01-14T11:30:58.617Z,94633.4
2019-01-14T11:32:00.789Z,94633.9
2019-01-14T11:33:02.922Z,94629.2
2019-01-14T11:34:05.370Z,94624.2
2019-01-14T11:35:07.536Z,94629.7
2019-01-14T11:36:09.964Z,94629.2
2019-01-14T11:37:12.111Z,94623.8
2019-01-14T11:38:14.554Z,94625.8
2019-01-14T11:39:16.435Z,94626.5
2019-01-14T11:40:18.860Z,94622.4
2019-01-14T11:41:21.299Z,94625.5
2019-01-14T11:42:23.728Z,94616.7
2019-01-14T11:43:26.155Z,94615.4
2019-01-14T11:44:28.576Z,94618.8
2019-01-14T11:45:31.006Z,94611.9
2019-01-14T11:46:33.435Z,94613.1
2019-01-14T11:47:35.872Z,94609.6
2019-01-14T11:48:38.306Z,94611.2
2019-01-14T11:49:40.737Z,94599.2
2019-01-14T11:50:42.875Z,94604
2019-01-14T11:51:45.315Z,94610.8
2019-01-14T11:52:47.171Z,94604
2019-01-14T11:53:49.320Z,94600.6
2019-01-14T11:54:51.492Z,94605.1
2019-01-14T11:55:53.647Z,94603.8
2019-01-14T11:56:55.819Z,94603.2
2019-01-14T11:57:57.988Z,94597.1
2019-01-14T11:59:00.125Z,94604.4
2019-01-14T12:00:02.548Z,94608.1
2019-01-14T12:01:04.985Z,94594
2019-01-14T12:02:07.420Z,94604.5
2019-01-14T12:03:09.966Z,94597.3
2019-01-14T12:04:12.404Z,94598.5
2019-01-14T12:05:14.874Z,94604.9
2019-01-14T12:06:17.302Z,94604.9
2019-01-14T12:07:19.198Z,94606.2
2019-01-14T12:08:22.576Z,94607.2
2019-01-14T12:09:24.743Z,94604.9
2019-01-14T12:10:27.165Z,94608.6
2019-01-14T12:11:29.594Z,94595.9
2019-01-14T12:12:32.014Z,94605.2
2019-01-14T12:13:34.170Z,94601.8
2019-01-14T12:14:36.650Z,94603.4
2019-01-14T12:15:39.153Z,94609.4
2019-01-14T12:16:41.293Z,94588.9
2019-01-14T12:17:43.454Z,94596.4
2019-01-14T12:18:45.880Z,94598.8
2019-01-14T12:19:48.307Z,94599.5
2019-01-14T12:20:50.731Z,94601.2
2019-01-14T12:21:52.866Z,94600.9
2019-01-14T12:22:55.024Z,94596.2
2019-01-14T12:23:57.461Z,94604
2019-01-14T12:24:59.605Z,94601.9
2019-01-14T12:26:01.490Z,94604.5
2019-01-14T12:27:03.927Z,94604.8
2019-01-14T12:28:06.354Z,94608.6
2019-01-14T12:29:08.783Z,94605.2
2019-01-14T12:30:11.213Z,94602.8
2019-01-14T12:31:13.371Z,94598.6
2019-01-14T12:32:15.272Z,94609.2
2019-01-14T12:33:17.726Z,94608.2
2019-01-14T12:34:20.186Z,94611.5
2019-01-14T12:35:22.320Z,94611.2
2019-01-14T12:36:24.472Z,94607.3
2019-01-14T12:37:26.906Z,94607.6
2019-01-14T12:38:29.069Z,94609.1
2019-01-14T12:39:31.494Z,94610.4
2019-01-14T12:40:33.915Z,94608.3